sensor_id;sensor_type;location;lat;lon;timestamp;temperature;humidity
2841;DHT22;53423;49.224;12.074;2022-07-30T00:02:11;18.30;99.90
2841;DHT22;53423;49.224;12.074;2022-07-30T00:04:39;18.20;99.90
2841;DHT22;53423;49.224;12.074;2022-07-30T00:07:07;18.20;99.90
2841;DHT22;53423;49.224;12.074;2022-07-30T00:09:36;18.20;99.90
2841;DHT22;53423;49.224;12.074;2022-07-30T00:12:05;18.20;99.90
2841;DHT22;53423;49.224;12.074;2022-07-30T00:14:34;18.20;99.90
2841;DHT22;53423;49.224;12.074;2022-07-30T00:17:03;18.20;99.90
2841;DHT22;53423;49.224;12.074;2022-07-30T00:19:34;18.20;99.90
2841;DHT22;53423;49.224;12.074;2022-07-30T00:22:02;18.20;99.90
2841;DHT22;53423;49.224;12.074;2022-07-30T00:24:31;18.10;99.90
2841;DHT22;53423;49.224;12.074;2022-07-30T00:26:59;18.10;99.90
2841;DHT22;53423;49.224;12.074;2022-07-30T00:29:28;18.10;99.90
2841;DHT22;53423;49.224;12.074;2022-07-30T00:31:56;18.00;99.90
2841;DHT22;53423;49.224;12.074;2022-07-30T00:34:25;18.00;99.90
2841;DHT22;53423;49.224;12.074;2022-07-30T00:36:54;18.00;99.90
2841;DHT22;53423;49.224;12.074;2022-07-30T00:39:23;18.00;99.90
2841;DHT22;53423;49.224;12.074;2022-07-30T00:41:59;18.00;99.90
2841;DHT22;53423;49.224;12.074;2022-07-30T00:44:28;18.10;99.90
2841;DHT22;53423;49.224;12.074;2022-07-30T00:46:57;18.00;99.90
2841;DHT22;53423;49.224;12.074;2022-07-30T00:49:25;18.10;99.90
2841;DHT22;53423;49.224;12.074;2022-07-30T00:51:55;18.10;99.90
2841;DHT22;53423;49.224;12.074;2022-07-30T00:54:24;18.00;99.90
2841;DHT22;53423;49.224;12.074;2022-07-30T00:56:52;18.00;99.90
2841;DHT22;53423;49.224;12.074;2022-07-30T00:59:20;18.00;99.90
2841;DHT22;53423;49.224;12.074;2022-07-30T01:01:48;17.90;99.90
2841;DHT22;53423;49.224;12.074;2022-07-30T01:04:17;17.90;99.90
2841;DHT22;53423;49.224;12.074;2022-07-30T01:06:45;17.90;99.90
2841;DHT22;53423;49.224;12.074;2022-07-30T01:09:14;17.90;99.90
2841;DHT22;53423;49.224;12.074;2022-07-30T01:11:43;17.80;99.90
2841;DHT22;53423;49.224;12.074;2022-07-30T01:14:11;17.80;99.90
2841;DHT22;53423;49.224;12.074;2022-07-30T01:16:41;17.80;99.90
2841;DHT22;53423;49.224;12.074;2022-07-30T01:19:16;17.80;99.90
2841;DHT22;53423;49.224;12.074;2022-07-30T01:22:28;17.80;99.90
2841;DHT22;53423;49.224;12.074;2022-07-30T01:25:07;17.80;99.90
2841;DHT22;53423;49.224;12.074;2022-07-30T01:27:42;17.80;99.90
2841;DHT22;53423;49.224;12.074;2022-07-30T01:30:12;17.70;99.90
2841;DHT22;53423;49.224;12.074;2022-07-30T01:32:44;17.70;99.90
2841;DHT22;53423;49.224;12.074;2022-07-30T01:35:15;17.70;99.90
2841;DHT22;53423;49.224;12.074;2022-07-30T01:37:46;17.60;99.90
2841;DHT22;53423;49.224;12.074;2022-07-30T01:40:15;17.60;99.90
2841;DHT22;53423;49.224;12.074;2022-07-30T01:42:47;17.50;99.90
2841;DHT22;53423;49.224;12.074;2022-07-30T01:45:16;17.50;99.90
2841;DHT22;53423;49.224;12.074;2022-07-30T01:47:45;17.40;99.90
2841;DHT22;53423;49.224;12.074;2022-07-30T01:50:15;17.40;99.90
2841;DHT22;53423;49.224;12.074;2022-07-30T01:52:45;17.40;99.90
2841;DHT22;53423;49.224;12.074;2022-07-30T01:55:16;17.40;99.90
2841;DHT22;53423;49.224;12.074;2022-07-30T01:57:48;17.30;99.90
2841;DHT22;53423;49.224;12.074;2022-07-30T02:00:17;17.20;99.90
2841;DHT22;53423;49.224;12.074;2022-07-30T02:02:45;17.20;99.90
2841;DHT22;53423;49.224;12.074;2022-07-30T02:05:14;17.10;99.90
2841;DHT22;53423;49.224;12.074;2022-07-30T02:07:46;17.10;99.90
2841;DHT22;53423;49.224;12.074;2022-07-30T02:10:23;17.10;99.90
2841;DHT22;53423;49.224;12.074;2022-07-30T02:12:56;17.10;99.90
2841;DHT22;53423;49.224;12.074;2022-07-30T02:15:30;17.00;99.90
2841;DHT22;53423;49.224;12.074;2022-07-30T02:18:03;16.90;99.90
2841;DHT22;53423;49.224;12.074;2022-07-30T02:20:34;16.90;99.90
2841;DHT22;53423;49.224;12.074;2022-07-30T02:23:07;16.90;99.90
2841;DHT22;53423;49.224;12.074;2022-07-30T02:25:42;16.80;99.90
2841;DHT22;53423;49.224;12.074;2022-07-30T02:28:13;16.80;99.90
2841;DHT22;53423;49.224;12.074;2022-07-30T02:30:47;16.80;99.90
2841;DHT22;53423;49.224;12.074;2022-07-30T02:33:21;16.70;99.90
2841;DHT22;53423;49.224;12.074;2022-07-30T02:35:55;16.70;99.90
2841;DHT22;53423;49.224;12.074;2022-07-30T02:38:25;16.60;99.90
2841;DHT22;53423;49.224;12.074;2022-07-30T02:40:57;16.60;99.90
2841;DHT22;53423;49.224;12.074;2022-07-30T02:43:28;16.60;99.90
2841;DHT22;53423;49.224;12.074;2022-07-30T02:46:03;16.60;99.90
2841;DHT22;53423;49.224;12.074;2022-07-30T02:48:32;16.60;99.90
2841;DHT22;53423;49.224;12.074;2022-07-30T02:51:04;16.60;99.90
2841;DHT22;53423;49.224;12.074;2022-07-30T02:53:34;16.50;99.90
2841;DHT22;53423;49.224;12.074;2022-07-30T02:56:05;16.50;99.90
2841;DHT22;53423;49.224;12.074;2022-07-30T02:58:36;16.50;99.90
2841;DHT22;53423;49.224;12.074;2022-07-30T03:01:06;16.50;99.90
2841;DHT22;53423;49.224;12.074;2022-07-30T03:03:37;16.50;99.90
2841;DHT22;53423;49.224;12.074;2022-07-30T03:06:08;16.50;99.90
2841;DHT22;53423;49.224;12.074;2022-07-30T03:08:37;16.40;99.90
2841;DHT22;53423;49.224;12.074;2022-07-30T03:11:05;16.40;99.90
2841;DHT22;53423;49.224;12.074;2022-07-30T03:13:37;16.40;99.90
2841;DHT22;53423;49.224;12.074;2022-07-30T03:16:08;16.30;99.90
2841;DHT22;53423;49.224;12.074;2022-07-30T03:18:37;16.30;99.90
2841;DHT22;53423;49.224;12.074;2022-07-30T03:21:09;16.20;99.90
2841;DHT22;53423;49.224;12.074;2022-07-30T03:23:39;16.20;99.90
2841;DHT22;53423;49.224;12.074;2022-07-30T03:26:08;16.20;99.90
2841;DHT22;53423;49.224;12.074;2022-07-30T03:28:40;16.20;99.90
2841;DHT22;53423;49.224;12.074;2022-07-30T03:31:09;16.20;99.90
2841;DHT22;53423;49.224;12.074;2022-07-30T03:33:39;16.20;99.90
2841;DHT22;53423;49.224;12.074;2022-07-30T03:36:11;16.30;99.90
2841;DHT22;53423;49.224;12.074;2022-07-30T03:38:41;16.30;99.90
2841;DHT22;53423;49.224;12.074;2022-07-30T03:41:10;16.40;99.90
2841;DHT22;53423;49.224;12.074;2022-07-30T03:43:40;16.40;99.90
2841;DHT22;53423;49.224;12.074;2022-07-30T03:46:09;16.50;99.90
2841;DHT22;53423;49.224;12.074;2022-07-30T03:48:38;16.50;99.90
2841;DHT22;53423;49.224;12.074;2022-07-30T03:51:08;16.60;99.90
2841;DHT22;53423;49.224;12.074;2022-07-30T03:53:39;16.70;99.90
2841;DHT22;53423;49.224;12.074;2022-07-30T03:56:07;16.70;99.90
2841;DHT22;53423;49.224;12.074;2022-07-30T03:58:36;16.80;99.90
2841;DHT22;53423;49.224;12.074;2022-07-30T04:01:06;16.80;99.90
2841;DHT22;53423;49.224;12.074;2022-07-30T04:03:34;16.80;99.90
2841;DHT22;53423;49.224;12.074;2022-07-30T04:06:03;16.80;99.90
2841;DHT22;53423;49.224;12.074;2022-07-30T04:08:32;16.80;99.90
2841;DHT22;53423;49.224;12.074;2022-07-30T04:11:00;16.80;99.90
2841;DHT22;53423;49.224;12.074;2022-07-30T04:13:28;16.80;99.90
2841;DHT22;53423;49.224;12.074;2022-07-30T04:16:00;16.80;99.90
2841;DHT22;53423;49.224;12.074;2022-07-30T04:18:52;16.70;99.90
2841;DHT22;53423;49.224;12.074;2022-07-30T04:21:23;16.60;99.90
2841;DHT22;53423;49.224;12.074;2022-07-30T04:23:54;16.60;99.90
2841;DHT22;53423;49.224;12.074;2022-07-30T04:26:30;16.60;99.90
2841;DHT22;53423;49.224;12.074;2022-07-30T04:29:00;16.60;99.90
2841;DHT22;53423;49.224;12.074;2022-07-30T04:31:30;16.60;99.90
2841;DHT22;53423;49.224;12.074;2022-07-30T04:34:11;16.60;99.90
2841;DHT22;53423;49.224;12.074;2022-07-30T04:36:41;16.60;99.90
2841;DHT22;53423;49.224;12.074;2022-07-30T04:39:09;16.60;99.90
2841;DHT22;53423;49.224;12.074;2022-07-30T04:41:38;16.60;99.90
2841;DHT22;53423;49.224;12.074;2022-07-30T04:44:17;16.60;99.90
2841;DHT22;53423;49.224;12.074;2022-07-30T04:46:46;16.60;99.90
2841;DHT22;53423;49.224;12.074;2022-07-30T04:49:16;16.70;99.90
2841;DHT22;53423;49.224;12.074;2022-07-30T04:51:46;16.70;99.90
2841;DHT22;53423;49.224;12.074;2022-07-30T04:54:15;16.70;99.90
2841;DHT22;53423;49.224;12.074;2022-07-30T04:56:46;16.60;99.90
2841;DHT22;53423;49.224;12.074;2022-07-30T04:59:23;16.70;99.90
2841;DHT22;53423;49.224;12.074;2022-07-30T05:01:52;16.80;99.90
2841;DHT22;53423;49.224;12.074;2022-07-30T05:04:25;16.80;99.90
2841;DHT22;53423;49.224;12.074;2022-07-30T05:06:55;16.90;99.90
2841;DHT22;53423;49.224;12.074;2022-07-30T05:09:25;16.80;99.90
2841;DHT22;53423;49.224;12.074;2022-07-30T05:11:54;16.90;99.90
2841;DHT22;53423;49.224;12.074;2022-07-30T05:14:23;16.90;99.90
2841;DHT22;53423;49.224;12.074;2022-07-30T05:16:53;17.00;99.90
2841;DHT22;53423;49.224;12.074;2022-07-30T05:19:22;17.00;99.90
2841;DHT22;53423;49.224;12.074;2022-07-30T05:21:52;17.10;99.90
2841;DHT22;53423;49.224;12.074;2022-07-30T05:24:20;17.10;99.90
2841;DHT22;53423;49.224;12.074;2022-07-30T05:26:49;17.20;99.90
2841;DHT22;53423;49.224;12.074;2022-07-30T05:29:17;17.20;99.90
2841;DHT22;53423;49.224;12.074;2022-07-30T05:31:46;17.20;99.90
2841;DHT22;53423;49.224;12.074;2022-07-30T05:34:15;17.20;99.90
2841;DHT22;53423;49.224;12.074;2022-07-30T05:36:43;17.20;99.90
2841;DHT22;53423;49.224;12.074;2022-07-30T05:39:13;17.20;99.90
2841;DHT22;53423;49.224;12.074;2022-07-30T05:41:42;17.20;99.90
2841;DHT22;53423;49.224;12.074;2022-07-30T05:44:10;17.30;99.90
2841;DHT22;53423;49.224;12.074;2022-07-30T05:46:39;17.30;99.90
2841;DHT22;53423;49.224;12.074;2022-07-30T05:49:07;17.20;99.90
2841;DHT22;53423;49.224;12.074;2022-07-30T05:51:35;17.30;99.90
2841;DHT22;53423;49.224;12.074;2022-07-30T05:54:04;17.30;99.90
2841;DHT22;53423;49.224;12.074;2022-07-30T05:56:34;17.40;99.90
2841;DHT22;53423;49.224;12.074;2022-07-30T05:59:03;17.40;99.90
2841;DHT22;53423;49.224;12.074;2022-07-30T06:01:32;17.50;99.90
2841;DHT22;53423;49.224;12.074;2022-07-30T06:04:00;17.60;99.90
2841;DHT22;53423;49.224;12.074;2022-07-30T06:06:28;17.50;99.90
2841;DHT22;53423;49.224;12.074;2022-07-30T06:08:57;17.60;99.90
2841;DHT22;53423;49.224;12.074;2022-07-30T06:11:25;17.60;99.90
2841;DHT22;53423;49.224;12.074;2022-07-30T06:13:54;17.70;99.90
2841;DHT22;53423;49.224;12.074;2022-07-30T06:16:23;17.60;99.90
2841;DHT22;53423;49.224;12.074;2022-07-30T06:18:51;17.70;99.90
2841;DHT22;53423;49.224;12.074;2022-07-30T06:21:19;17.80;99.90
2841;DHT22;53423;49.224;12.074;2022-07-30T06:23:47;17.80;99.90
2841;DHT22;53423;49.224;12.074;2022-07-30T06:26:16;17.90;99.90
2841;DHT22;53423;49.224;12.074;2022-07-30T06:28:44;17.90;99.90
2841;DHT22;53423;49.224;12.074;2022-07-30T06:31:13;17.90;99.90
2841;DHT22;53423;49.224;12.074;2022-07-30T06:33:42;17.90;99.90
2841;DHT22;53423;49.224;12.074;2022-07-30T06:36:10;18.00;99.90
2841;DHT22;53423;49.224;12.074;2022-07-30T06:38:40;18.00;99.90
2841;DHT22;53423;49.224;12.074;2022-07-30T06:41:08;18.00;99.90
2841;DHT22;53423;49.224;12.074;2022-07-30T06:43:37;18.00;99.90
2841;DHT22;53423;49.224;12.074;2022-07-30T06:46:05;18.10;99.90
2841;DHT22;53423;49.224;12.074;2022-07-30T06:48:35;18.10;99.90
2841;DHT22;53423;49.224;12.074;2022-07-30T06:51:03;18.20;99.90
2841;DHT22;53423;49.224;12.074;2022-07-30T06:53:31;18.30;99.90
2841;DHT22;53423;49.224;12.074;2022-07-30T06:56:08;18.30;99.90
2841;DHT22;53423;49.224;12.074;2022-07-30T06:58:36;18.40;99.90
2841;DHT22;53423;49.224;12.074;2022-07-30T07:01:05;18.50;99.90
2841;DHT22;53423;49.224;12.074;2022-07-30T07:03:38;18.50;99.90
2841;DHT22;53423;49.224;12.074;2022-07-30T07:06:07;18.50;99.90
2841;DHT22;53423;49.224;12.074;2022-07-30T07:08:36;18.60;99.90
2841;DHT22;53423;49.224;12.074;2022-07-30T07:11:04;18.60;99.90
2841;DHT22;53423;49.224;12.074;2022-07-30T07:13:33;18.70;99.90
2841;DHT22;53423;49.224;12.074;2022-07-30T07:16:01;18.80;99.90
2841;DHT22;53423;49.224;12.074;2022-07-30T07:18:30;19.00;99.90
2841;DHT22;53423;49.224;12.074;2022-07-30T07:20:59;19.10;99.90
2841;DHT22;53423;49.224;12.074;2022-07-30T07:23:28;19.20;99.90
2841;DHT22;53423;49.224;12.074;2022-07-30T07:26:09;19.20;99.90
2841;DHT22;53423;49.224;12.074;2022-07-30T07:28:37;19.30;99.90
2841;DHT22;53423;49.224;12.074;2022-07-30T07:31:07;19.30;99.90
2841;DHT22;53423;49.224;12.074;2022-07-30T07:33:36;19.30;99.90
2841;DHT22;53423;49.224;12.074;2022-07-30T07:36:06;19.30;99.90
2841;DHT22;53423;49.224;12.074;2022-07-30T07:38:35;19.30;99.90
2841;DHT22;53423;49.224;12.074;2022-07-30T07:41:03;19.40;99.90
2841;DHT22;53423;49.224;12.074;2022-07-30T07:43:32;19.50;99.90
2841;DHT22;53423;49.224;12.074;2022-07-30T07:46:00;19.60;99.90
2841;DHT22;53423;49.224;12.074;2022-07-30T07:48:29;19.70;99.90
2841;DHT22;53423;49.224;12.074;2022-07-30T07:50:57;19.70;99.90
2841;DHT22;53423;49.224;12.074;2022-07-30T07:53:28;19.90;99.90
2841;DHT22;53423;49.224;12.074;2022-07-30T07:55:56;20.10;99.90
2841;DHT22;53423;49.224;12.074;2022-07-30T07:58:27;20.30;99.90
2841;DHT22;53423;49.224;12.074;2022-07-30T08:00:56;20.30;99.90
2841;DHT22;53423;49.224;12.074;2022-07-30T08:03:25;20.30;99.90
2841;DHT22;53423;49.224;12.074;2022-07-30T08:05:53;20.50;99.90
2841;DHT22;53423;49.224;12.074;2022-07-30T08:08:33;20.80;99.90
2841;DHT22;53423;49.224;12.074;2022-07-30T08:11:04;21.50;99.90
2841;DHT22;53423;49.224;12.074;2022-07-30T08:13:32;21.90;99.90
2841;DHT22;53423;49.224;12.074;2022-07-30T08:16:18;22.00;99.90
2841;DHT22;53423;49.224;12.074;2022-07-30T08:18:46;22.20;98.10
2841;DHT22;53423;49.224;12.074;2022-07-30T08:21:14;22.60;95.60
2841;DHT22;53423;49.224;12.074;2022-07-30T08:23:44;22.70;93.20
2841;DHT22;53423;49.224;12.074;2022-07-30T08:26:13;22.80;92.10
2841;DHT22;53423;49.224;12.074;2022-07-30T08:28:41;22.60;90.60
2841;DHT22;53423;49.224;12.074;2022-07-30T08:31:11;22.80;91.30
2841;DHT22;53423;49.224;12.074;2022-07-30T08:33:40;23.30;90.00
2841;DHT22;53423;49.224;12.074;2022-07-30T08:36:08;23.70;86.50
2841;DHT22;53423;49.224;12.074;2022-07-30T08:38:37;24.10;85.40
2841;DHT22;53423;49.224;12.074;2022-07-30T08:41:07;24.50;82.70
2841;DHT22;53423;49.224;12.074;2022-07-30T08:43:36;24.70;80.90
2841;DHT22;53423;49.224;12.074;2022-07-30T08:46:08;24.70;78.70
2841;DHT22;53423;49.224;12.074;2022-07-30T08:48:38;24.90;76.90
2841;DHT22;53423;49.224;12.074;2022-07-30T08:51:08;24.90;76.20
2841;DHT22;53423;49.224;12.074;2022-07-30T08:53:37;24.70;79.00
2841;DHT22;53423;49.224;12.074;2022-07-30T08:56:07;24.50;80.40
2841;DHT22;53423;49.224;12.074;2022-07-30T08:58:36;24.70;78.30
2841;DHT22;53423;49.224;12.074;2022-07-30T09:01:05;24.80;75.20
2841;DHT22;53423;49.224;12.074;2022-07-30T09:03:35;24.60;75.00
2841;DHT22;53423;49.224;12.074;2022-07-30T09:06:10;24.40;75.00
2841;DHT22;53423;49.224;12.074;2022-07-30T09:08:39;24.30;77.20
2841;DHT22;53423;49.224;12.074;2022-07-30T09:11:09;24.20;76.70
2841;DHT22;53423;49.224;12.074;2022-07-30T09:13:39;24.50;77.20
2841;DHT22;53423;49.224;12.074;2022-07-30T09:16:18;24.80;78.10
2841;DHT22;53423;49.224;12.074;2022-07-30T09:18:47;25.10;75.90
2841;DHT22;53423;49.224;12.074;2022-07-30T09:21:17;25.10;73.50
2841;DHT22;53423;49.224;12.074;2022-07-30T09:23:55;25.20;72.20
2841;DHT22;53423;49.224;12.074;2022-07-30T09:26:26;25.00;71.90
2841;DHT22;53423;49.224;12.074;2022-07-30T09:28:54;24.90;73.00
2841;DHT22;53423;49.224;12.074;2022-07-30T09:31:22;24.80;74.40
2841;DHT22;53423;49.224;12.074;2022-07-30T09:33:51;24.60;72.90
2841;DHT22;53423;49.224;12.074;2022-07-30T09:36:19;24.70;73.70
2841;DHT22;53423;49.224;12.074;2022-07-30T09:38:49;24.90;72.50
2841;DHT22;53423;49.224;12.074;2022-07-30T09:41:31;25.30;71.00
2841;DHT22;53423;49.224;12.074;2022-07-30T09:44:07;25.50;69.70
2841;DHT22;53423;49.224;12.074;2022-07-30T09:46:42;25.20;68.10
2841;DHT22;53423;49.224;12.074;2022-07-30T09:49:13;25.10;68.20
2841;DHT22;53423;49.224;12.074;2022-07-30T09:51:43;25.10;70.70
2841;DHT22;53423;49.224;12.074;2022-07-30T09:54:45;25.30;70.70
2841;DHT22;53423;49.224;12.074;2022-07-30T09:57:18;25.30;67.80
2841;DHT22;53423;49.224;12.074;2022-07-30T09:59:54;25.30;66.90
2841;DHT22;53423;49.224;12.074;2022-07-30T10:02:29;25.20;67.20
2841;DHT22;53423;49.224;12.074;2022-07-30T10:05:09;25.00;66.70
2841;DHT22;53423;49.224;12.074;2022-07-30T10:07:47;24.80;67.70
2841;DHT22;53423;49.224;12.074;2022-07-30T10:10:19;24.70;68.30
2841;DHT22;53423;49.224;12.074;2022-07-30T10:12:53;24.90;68.40
2841;DHT22;53423;49.224;12.074;2022-07-30T10:15:29;24.90;67.70
2841;DHT22;53423;49.224;12.074;2022-07-30T10:18:01;25.20;68.10
2841;DHT22;53423;49.224;12.074;2022-07-30T10:20:32;25.40;67.30
2841;DHT22;53423;49.224;12.074;2022-07-30T10:23:01;25.60;66.10
2841;DHT22;53423;49.224;12.074;2022-07-30T10:25:35;25.80;64.30
2841;DHT22;53423;49.224;12.074;2022-07-30T10:28:21;25.60;65.60
2841;DHT22;53423;49.224;12.074;2022-07-30T10:30:52;25.70;65.60
2841;DHT22;53423;49.224;12.074;2022-07-30T10:33:22;25.90;65.40
2841;DHT22;53423;49.224;12.074;2022-07-30T10:36:02;26.20;63.80
2841;DHT22;53423;49.224;12.074;2022-07-30T10:38:37;26.20;62.60
2841;DHT22;53423;49.224;12.074;2022-07-30T10:41:13;26.50;62.30
2841;DHT22;53423;49.224;12.074;2022-07-30T10:44:19;26.60;60.20
2841;DHT22;53423;49.224;12.074;2022-07-30T10:46:59;26.70;59.90
2841;DHT22;53423;49.224;12.074;2022-07-30T10:49:34;26.80;60.00
2841;DHT22;53423;49.224;12.074;2022-07-30T10:52:09;26.80;60.80
2841;DHT22;53423;49.224;12.074;2022-07-30T10:54:40;26.50;59.50
2841;DHT22;53423;49.224;12.074;2022-07-30T10:57:11;26.30;59.60
2841;DHT22;53423;49.224;12.074;2022-07-30T11:00:16;25.90;59.70
2841;DHT22;53423;49.224;12.074;2022-07-30T11:03:21;26.20;60.30
2841;DHT22;53423;49.224;12.074;2022-07-30T11:06:27;26.70;60.50
2841;DHT22;53423;49.224;12.074;2022-07-30T11:08:56;27.00;58.10
2841;DHT22;53423;49.224;12.074;2022-07-30T11:11:44;27.30;57.80
2841;DHT22;53423;49.224;12.074;2022-07-30T11:14:54;27.60;57.20
2841;DHT22;53423;49.224;12.074;2022-07-30T11:18:00;27.80;56.30
2841;DHT22;53423;49.224;12.074;2022-07-30T11:20:32;27.90;55.90
2841;DHT22;53423;49.224;12.074;2022-07-30T11:26:01;27.50;56.50
2841;DHT22;53423;49.224;12.074;2022-07-30T11:28:41;27.70;56.70
2841;DHT22;53423;49.224;12.074;2022-07-30T11:31:34;27.80;56.40
2841;DHT22;53423;49.224;12.074;2022-07-30T11:34:27;27.90;56.40
2841;DHT22;53423;49.224;12.074;2022-07-30T11:37:09;28.00;55.50
2841;DHT22;53423;49.224;12.074;2022-07-30T11:40:11;28.10;54.50
2841;DHT22;53423;49.224;12.074;2022-07-30T11:42:40;28.20;54.80
2841;DHT22;53423;49.224;12.074;2022-07-30T11:45:27;28.30;53.80
2841;DHT22;53423;49.224;12.074;2022-07-30T11:47:57;28.10;53.70
2841;DHT22;53423;49.224;12.074;2022-07-30T11:50:30;28.00;54.00
2841;DHT22;53423;49.224;12.074;2022-07-30T11:53:03;27.80;53.20
2841;DHT22;53423;49.224;12.074;2022-07-30T11:55:34;27.80;52.50
2841;DHT22;53423;49.224;12.074;2022-07-30T11:58:04;28.20;52.70
2841;DHT22;53423;49.224;12.074;2022-07-30T12:00:35;28.40;51.50
2841;DHT22;53423;49.224;12.074;2022-07-30T12:03:08;28.50;50.80
2841;DHT22;53423;49.224;12.074;2022-07-30T12:05:38;28.10;50.10
2841;DHT22;53423;49.224;12.074;2022-07-30T12:08:08;27.80;50.80
2841;DHT22;53423;49.224;12.074;2022-07-30T12:10:59;27.60;51.00
2841;DHT22;53423;49.224;12.074;2022-07-30T12:13:27;27.50;52.60
2841;DHT22;53423;49.224;12.074;2022-07-30T12:16:12;27.40;51.80
2841;DHT22;53423;49.224;12.074;2022-07-30T12:18:42;27.40;52.30
2841;DHT22;53423;49.224;12.074;2022-07-30T12:21:11;27.30;52.50
2841;DHT22;53423;49.224;12.074;2022-07-30T12:23:52;27.30;52.60
2841;DHT22;53423;49.224;12.074;2022-07-30T12:26:22;27.20;52.00
2841;DHT22;53423;49.224;12.074;2022-07-30T12:28:54;26.90;52.40
2841;DHT22;53423;49.224;12.074;2022-07-30T12:31:23;26.80;52.30
2841;DHT22;53423;49.224;12.074;2022-07-30T12:33:52;26.70;53.00
2841;DHT22;53423;49.224;12.074;2022-07-30T12:36:29;26.70;54.00
2841;DHT22;53423;49.224;12.074;2022-07-30T12:39:00;26.70;54.30
2841;DHT22;53423;49.224;12.074;2022-07-30T12:41:43;26.70;53.70
2841;DHT22;53423;49.224;12.074;2022-07-30T12:44:32;26.70;53.30
2841;DHT22;53423;49.224;12.074;2022-07-30T12:47:00;26.60;54.00
2841;DHT22;53423;49.224;12.074;2022-07-30T12:49:30;26.40;53.90
2841;DHT22;53423;49.224;12.074;2022-07-30T12:52:20;26.20;54.30
2841;DHT22;53423;49.224;12.074;2022-07-30T12:55:04;26.00;55.20
2841;DHT22;53423;49.224;12.074;2022-07-30T12:57:56;26.00;55.40
2841;DHT22;53423;49.224;12.074;2022-07-30T13:00:32;26.00;56.70
2841;DHT22;53423;49.224;12.074;2022-07-30T13:03:19;26.00;56.30
2841;DHT22;53423;49.224;12.074;2022-07-30T13:05:49;25.90;55.80
2841;DHT22;53423;49.224;12.074;2022-07-30T13:08:47;25.80;56.40
2841;DHT22;53423;49.224;12.074;2022-07-30T13:11:18;25.50;56.90
2841;DHT22;53423;49.224;12.074;2022-07-30T13:13:47;25.30;56.80
2841;DHT22;53423;49.224;12.074;2022-07-30T13:16:16;25.10;57.10
2841;DHT22;53423;49.224;12.074;2022-07-30T13:18:45;25.00;56.60
2841;DHT22;53423;49.224;12.074;2022-07-30T13:21:14;24.80;57.20
2841;DHT22;53423;49.224;12.074;2022-07-30T13:23:42;24.70;57.90
2841;DHT22;53423;49.224;12.074;2022-07-30T13:26:12;24.60;58.20
2841;DHT22;53423;49.224;12.074;2022-07-30T13:28:41;24.80;58.60
2841;DHT22;53423;49.224;12.074;2022-07-30T13:31:12;25.00;58.50
2841;DHT22;53423;49.224;12.074;2022-07-30T13:33:40;25.50;59.00
2841;DHT22;53423;49.224;12.074;2022-07-30T13:36:09;25.90;57.30
2841;DHT22;53423;49.224;12.074;2022-07-30T13:38:37;26.30;56.40
2841;DHT22;53423;49.224;12.074;2022-07-30T13:41:06;26.50;54.20
2841;DHT22;53423;49.224;12.074;2022-07-30T13:43:34;26.70;55.10
2841;DHT22;53423;49.224;12.074;2022-07-30T13:46:04;26.80;53.80
2841;DHT22;53423;49.224;12.074;2022-07-30T13:48:34;26.90;53.20
2841;DHT22;53423;49.224;12.074;2022-07-30T13:51:03;26.80;52.40
2841;DHT22;53423;49.224;12.074;2022-07-30T13:53:32;26.80;52.90
2841;DHT22;53423;49.224;12.074;2022-07-30T13:56:00;26.70;52.70
2841;DHT22;53423;49.224;12.074;2022-07-30T13:58:29;26.30;52.60
2841;DHT22;53423;49.224;12.074;2022-07-30T14:01:02;26.10;53.00
2841;DHT22;53423;49.224;12.074;2022-07-30T14:03:34;26.00;53.90
2841;DHT22;53423;49.224;12.074;2022-07-30T14:06:03;26.20;53.60
2841;DHT22;53423;49.224;12.074;2022-07-30T14:08:37;26.20;52.50
2841;DHT22;53423;49.224;12.074;2022-07-30T14:11:05;26.20;52.30
2841;DHT22;53423;49.224;12.074;2022-07-30T14:13:34;26.20;52.80
2841;DHT22;53423;49.224;12.074;2022-07-30T14:16:02;26.10;52.60
2841;DHT22;53423;49.224;12.074;2022-07-30T14:18:45;25.80;52.90
2841;DHT22;53423;49.224;12.074;2022-07-30T14:21:13;25.60;53.50
2841;DHT22;53423;49.224;12.074;2022-07-30T14:23:41;25.30;54.80
2841;DHT22;53423;49.224;12.074;2022-07-30T14:26:09;25.20;54.60
2841;DHT22;53423;49.224;12.074;2022-07-30T14:28:38;25.10;55.00
2841;DHT22;53423;49.224;12.074;2022-07-30T14:31:06;25.00;54.90
2841;DHT22;53423;49.224;12.074;2022-07-30T14:33:34;24.90;54.20
2841;DHT22;53423;49.224;12.074;2022-07-30T14:36:04;24.70;53.40
2841;DHT22;53423;49.224;12.074;2022-07-30T14:38:32;24.60;53.00
2841;DHT22;53423;49.224;12.074;2022-07-30T14:41:00;24.60;53.40
2841;DHT22;53423;49.224;12.074;2022-07-30T14:43:29;24.60;53.00
2841;DHT22;53423;49.224;12.074;2022-07-30T14:45:57;24.70;53.40
2841;DHT22;53423;49.224;12.074;2022-07-30T14:48:25;24.80;53.60
2841;DHT22;53423;49.224;12.074;2022-07-30T14:50:54;24.90;53.10
2841;DHT22;53423;49.224;12.074;2022-07-30T14:53:43;24.90;52.00
2841;DHT22;53423;49.224;12.074;2022-07-30T14:56:13;24.90;52.10
2841;DHT22;53423;49.224;12.074;2022-07-30T14:58:43;25.00;53.10
2841;DHT22;53423;49.224;12.074;2022-07-30T15:01:11;25.10;52.40
2841;DHT22;53423;49.224;12.074;2022-07-30T15:03:42;25.00;52.90
2841;DHT22;53423;49.224;12.074;2022-07-30T15:06:11;24.90;53.20
2841;DHT22;53423;49.224;12.074;2022-07-30T15:08:41;24.80;53.80
2841;DHT22;53423;49.224;12.074;2022-07-30T15:11:10;24.60;54.30
2841;DHT22;53423;49.224;12.074;2022-07-30T15:13:39;24.50;55.00
2841;DHT22;53423;49.224;12.074;2022-07-30T15:16:16;24.30;55.60
2841;DHT22;53423;49.224;12.074;2022-07-30T15:18:45;24.20;56.20
2841;DHT22;53423;49.224;12.074;2022-07-30T15:21:13;23.60;58.50
2841;DHT22;53423;49.224;12.074;2022-07-30T15:23:41;22.70;65.30
2841;DHT22;53423;49.224;12.074;2022-07-30T15:26:11;22.00;71.30
2841;DHT22;53423;49.224;12.074;2022-07-30T15:28:39;21.60;78.50
2841;DHT22;53423;49.224;12.074;2022-07-30T15:31:07;21.20;79.00
2841;DHT22;53423;49.224;12.074;2022-07-30T15:33:36;21.00;80.50
2841;DHT22;53423;49.224;12.074;2022-07-30T15:36:07;20.90;85.60
2841;DHT22;53423;49.224;12.074;2022-07-30T15:38:36;20.80;85.60
2841;DHT22;53423;49.224;12.074;2022-07-30T15:41:04;20.70;90.10
2841;DHT22;53423;49.224;12.074;2022-07-30T15:43:40;20.50;93.30
2841;DHT22;53423;49.224;12.074;2022-07-30T15:46:08;20.40;95.20
2841;DHT22;53423;49.224;12.074;2022-07-30T15:48:37;20.30;97.90
2841;DHT22;53423;49.224;12.074;2022-07-30T15:51:05;20.30;99.90
2841;DHT22;53423;49.224;12.074;2022-07-30T15:53:34;20.20;99.90
2841;DHT22;53423;49.224;12.074;2022-07-30T15:56:02;20.10;99.90
2841;DHT22;53423;49.224;12.074;2022-07-30T15:58:31;20.10;99.90
2841;DHT22;53423;49.224;12.074;2022-07-30T16:01:02;20.10;99.90
2841;DHT22;53423;49.224;12.074;2022-07-30T16:03:31;20.10;99.90